Time;durP1;ratioP1;P1;durP2;ratioP2;P2;SDS_P1;SDS_P2;PMS_P1;PMS_P2;Temp;Humidity;BMP_temperature;BMP_pressure;BME280_temperature;BME280_humidity;BME280_pressure;Samples;Min_cycle;Max_cycle;Signal;HPM_P1;HPM_P2
2022/10/30 00:03:54;;;;;;;6.88;4.75;;;;;;;;;;10185687;28;20492;-70
2022/10/30 00:08:52;;;;;;;7.75;4.90;;;;;;;;;;10170484;28;20096;-69
2022/10/30 00:13:51;;;;;;;8.90;4.57;;;;;;;;;;10169730;28;20080;-70
2022/10/30 00:18:50;;;;;;;5.32;4.55;;;;;;;;;;10188174;28;20122;-70
2022/10/30 00:23:50;;;;;;;7.25;4.32;;;;;;;;;;10198788;28;20049;-70
2022/10/30 00:28:49;;;;;;;5.93;4.63;;;;;;;;;;10196115;28;20085;-69
2022/10/30 00:33:49;;;;;;;6.20;4.50;;;;;;;;;;10189867;28;20504;-70
2022/10/30 00:38:48;;;;;;;5.88;4.28;;;;;;;;;;10200062;28;20118;-70
2022/10/30 00:43:50;;;;;;;6.50;4.80;;;;;;;;;;10172348;28;20072;-69
2022/10/30 00:48:52;;;;;;;6.63;4.15;;;;;;;;;;10166349;28;20077;-69
2022/10/30 00:53:52;;;;;;;5.88;4.50;;;;;;;;;;10165373;28;20482;-70
2022/10/30 00:58:52;;;;;;;6.80;4.80;;;;;;;;;;10152122;28;20511;-70
2022/10/30 01:03:52;;;;;;;7.18;4.97;;;;;;;;;;10186801;28;20049;-71
2022/10/30 01:14:33;;;;;;;11.30;6.93;;;;;;;;;;10182814;28;20096;-68
2022/10/30 01:19:34;;;;;;;6.80;5.35;;;;;;;;;;10171054;28;20042;-70
2022/10/30 01:24:37;;;;;;;5.57;4.80;;;;;;;;;;10174864;28;20050;-69
2022/10/30 01:29:41;;;;;;;7.38;5.28;;;;;;;;;;10169348;28;20085;-70
2022/10/30 01:34:47;;;;;;;7.10;5.15;;;;;;;;;;10176190;28;20053;-70
2022/10/30 01:39:45;;;;;;;7.57;5.15;;;;;;;;;;10178948;28;20057;-71
2022/10/30 01:44:45;;;;;;;8.45;5.45;;;;;;;;;;10166937;28;20041;-70
2022/10/30 01:49:55;;;;;;;6.47;5.60;;;;;;;;;;10176761;28;20420;-71
2022/10/30 01:54:58;;;;;;;7.40;5.57;;;;;;;;;;10194728;28;20069;-70
2022/10/30 01:59:59;;;;;;;9.82;4.97;;;;;;;;;;10164840;28;20073;-70
2022/10/30 02:04:58;;;;;;;8.52;5.55;;;;;;;;;;10144411;28;20046;-70
2022/10/30 02:09:57;;;;;;;9.27;6.35;;;;;;;;;;10151538;28;20065;-70
2022/10/30 02:15:00;;;;;;;8.77;6.18;;;;;;;;;;10165325;28;20088;-70
2022/10/30 02:19:59;;;;;;;8.88;7.35;;;;;;;;;;10164140;28;20061;-69
2022/10/30 02:24:58;;;;;;;12.75;8.13;;;;;;;;;;10166284;28;20066;-69
2022/10/30 02:29:56;;;;;;;12.80;9.98;;;;;;;;;;10166563;28;20201;-70
2022/10/30 02:34:55;;;;;;;11.38;8.73;;;;;;;;;;10170892;28;20069;-70
2022/10/30 02:39:53;;;;;;;12.32;9.35;;;;;;;;;;10165348;28;20081;-69
2022/10/30 02:44:53;;;;;;;12.40;10.23;;;;;;;;;;10146785;28;20081;-70
2022/10/30 02:49:51;;;;;;;12.77;10.30;;;;;;;;;;10167480;28;20089;-70
2022/10/30 02:54:49;;;;;;;13.60;10.13;;;;;;;;;;10173898;28;20074;-70
2022/10/30 02:59:48;;;;;;;12.38;9.93;;;;;;;;;;10159160;28;20081;-69
2022/10/30 03:04:47;;;;;;;16.92;11.65;;;;;;;;;;10148236;28;20073;-69
2022/10/30 03:09:47;;;;;;;10.75;9.27;;;;;;;;;;10167350;28;20476;-70
2022/10/30 03:14:45;;;;;;;15.68;10.45;;;;;;;;;;10163725;28;20041;-69
2022/10/30 03:19:43;;;;;;;11.05;8.50;;;;;;;;;;10173216;28;20077;-70
2022/10/30 03:24:43;;;;;;;9.88;8.65;;;;;;;;;;10193552;28;20065;-70
2022/10/30 03:29:41;;;;;;;9.93;8.25;;;;;;;;;;10193391;28;20057;-70
2022/10/30 03:34:39;;;;;;;9.43;6.97;;;;;;;;;;10175630;28;20076;-69
2022/10/30 03:39:38;;;;;;;10.13;8.23;;;;;;;;;;10154660;28;20054;-70
2022/10/30 03:44:38;;;;;;;10.95;8.07;;;;;;;;;;10187409;28;20069;-70
2022/10/30 03:49:37;;;;;;;8.93;8.05;;;;;;;;;;10169878;28;20074;-70
2022/10/30 03:54:40;;;;;;;8.93;7.78;;;;;;;;;;10172611;28;20058;-69
2022/10/30 03:59:41;;;;;;;11.25;8.48;;;;;;;;;;10170768;28;20061;-69
2022/10/30 04:04:58;;;;;;;9.90;8.60;;;;;;;;;;10173013;28;20492;-70
2022/10/30 04:09:57;;;;;;;10.95;9.82;;;;;;;;;;10169890;28;20042;-70
2022/10/30 04:14:56;;;;;;;11.20;8.60;;;;;;;;;;10172122;28;20077;-70
2022/10/30 04:19:55;;;;;;;13.23;8.90;;;;;;;;;;10169891;28;20050;-70
2022/10/30 04:24:53;;;;;;;10.38;9.35;;;;;;;;;;10168880;28;20046;-70
2022/10/30 04:29:51;;;;;;;11.43;9.13;;;;;;;;;;10168741;28;20054;-70
2022/10/30 04:34:52;;;;;;;11.27;8.60;;;;;;;;;;10175497;28;20078;-70
2022/10/30 04:39:50;;;;;;;10.32;8.45;;;;;;;;;;10173459;28;20050;-69
2022/10/30 04:44:54;;;;;;;12.40;8.60;;;;;;;;;;10171410;28;20043;-69
2022/10/30 04:49:55;;;;;;;10.82;7.45;;;;;;;;;;10167942;28;20582;-69
2022/10/30 04:54:54;;;;;;;10.38;7.43;;;;;;;;;;10169364;28;20082;-69
2022/10/30 04:59:52;;;;;;;8.07;7.25;;;;;;;;;;10167143;28;20049;-70
2022/10/30 05:04:51;;;;;;;8.25;7.43;;;;;;;;;;10170383;28;20042;-70
2022/10/30 05:09:50;;;;;;;10.82;7.63;;;;;;;;;;10179612;28;20046;-68
2022/10/30 05:14:49;;;;;;;9.48;6.63;;;;;;;;;;10168186;28;20096;-69
2022/10/30 05:19:47;;;;;;;10.60;7.38;;;;;;;;;;10176952;28;20054;-69
2022/10/30 05:24:46;;;;;;;9.45;6.20;;;;;;;;;;10167349;28;20065;-70
2022/10/30 05:29:45;;;;;;;7.65;6.03;;;;;;;;;;10166119;28;20176;-70
2022/10/30 05:34:45;;;;;;;7.45;6.43;;;;;;;;;;10170220;28;20460;-69
2022/10/30 05:39:47;;;;;;;9.98;6.45;;;;;;;;;;10166656;28;20073;-69
2022/10/30 05:44:56;;;;;;;8.65;6.05;;;;;;;;;;10164831;28;20073;-70
2022/10/30 05:50:01;;;;;;;7.50;5.70;;;;;;;;;;10183414;28;20096;-69
2022/10/30 05:55:00;;;;;;;9.32;5.50;;;;;;;;;;10170284;28;20085;-69
2022/10/30 06:00:34;;;;;;;10.07;5.57;;;;;;;;;;10168275;28;20086;-70
2022/10/30 06:05:34;;;;;;;6.60;5.90;;;;;;;;;;10180346;28;20808;-70
2022/10/30 06:10:32;;;;;;;7.05;5.95;;;;;;;;;;10180655;28;20140;-69
2022/10/30 06:15:45;;;;;;;10.25;5.10;;;;;;;;;;10171803;28;20085;-69
2022/10/30 06:20:43;;;;;;;8.48;5.70;;;;;;;;;;10167873;28;20088;-69
2022/10/30 06:25:56;;;;;;;6.97;5.55;;;;;;;;;;10187435;28;20080;-69
2022/10/30 06:31:06;;;;;;;7.15;5.78;;;;;;;;;;10184679;28;20072;-69
2022/10/30 06:36:08;;;;;;;7.20;5.60;;;;;;;;;;10156376;28;20084;-70
2022/10/30 06:41:07;;;;;;;9.85;6.20;;;;;;;;;;10163752;28;20073;-69
2022/10/30 06:46:24;;;;;;;8.02;5.00;;;;;;;;;;10155826;28;20081;-69
2022/10/30 06:51:29;;;;;;;6.20;5.55;;;;;;;;;;10156926;28;20507;-69
2022/10/30 06:56:29;;;;;;;8.40;5.97;;;;;;;;;;10166161;28;20073;-70
2022/10/30 07:01:41;;;;;;;13.13;6.25;;;;;;;;;;10181893;28;20496;-70
2022/10/30 07:06:52;;;;;;;11.38;6.90;;;;;;;;;;10176467;28;20085;-69
2022/10/30 07:11:52;;;;;;;11.52;6.97;;;;;;;;;;10170308;28;20459;-70
2022/10/30 07:17:10;;;;;;;8.95;6.88;;;;;;;;;;10170925;28;20086;-71
2022/10/30 07:22:11;;;;;;;11.32;6.10;;;;;;;;;;10154539;28;20085;-68
2022/10/30 07:27:13;;;;;;;15.07;7.47;;;;;;;;;;10160595;28;20088;-70
2022/10/30 07:32:22;;;;;;;10.68;6.43;;;;;;;;;;10160683;28;20476;-69
2022/10/30 07:37:40;;;;;;;11.48;6.28;;;;;;;;;;10145734;28;20085;-69
2022/10/30 07:42:42;;;;;;;9.38;6.53;;;;;;;;;;10169171;28;20492;-70
2022/10/30 07:47:57;;;;;;;6.22;5.45;;;;;;;;;;10147808;28;20084;-69
2022/10/30 07:53:10;;;;;;;8.43;6.53;;;;;;;;;;10146685;28;20112;-68
2022/10/30 07:58:08;;;;;;;11.65;6.85;;;;;;;;;;10154502;28;20081;-69
2022/10/30 08:03:42;;;;;;;10.63;7.78;;;;;;;;;;10169867;28;20530;-70
2022/10/30 08:08:52;;;;;;;11.98;8.18;;;;;;;;;;10182631;28;20058;-70
2022/10/30 08:13:56;;;;;;;10.10;7.53;;;;;;;;;;10167994;28;20045;-69
2022/10/30 08:18:56;;;;;;;9.57;7.57;;;;;;;;;;10154416;28;20074;-69
2022/10/30 08:23:55;;;;;;;9.00;6.82;;;;;;;;;;10165757;28;20071;-70
2022/10/30 08:28:57;;;;;;;10.52;7.35;;;;;;;;;;10155460;28;20097;-69
2022/10/30 08:33:59;;;;;;;8.50;7.43;;;;;;;;;;10182234;28;20077;-70
2022/10/30 08:39:02;;;;;;;12.07;7.95;;;;;;;;;;10168066;28;20100;-70
2022/10/30 08:44:27;;;;;;;9.15;6.50;;;;;;;;;;10152803;28;20073;-70
2022/10/30 08:49:52;;;;;;;10.38;7.40;;;;;;;;;;10156378;28;20089;-70
2022/10/30 08:54:55;;;;;;;8.37;6.47;;;;;;;;;;10171996;28;20047;-70
2022/10/30 08:59:55;;;;;;;9.00;5.82;;;;;;;;;;10167515;28;20081;-70
2022/10/30 09:05:13;;;;;;;12.20;7.45;;;;;;;;;;10172829;28;20070;-70
2022/10/30 09:10:41;;;;;;;10.43;7.00;;;;;;;;;;10171799;28;20093;-69
2022/10/30 09:15:40;;;;;;;9.18;7.53;;;;;;;;;;10176538;28;20073;-69
2022/10/30 09:20:40;;;;;;;9.18;5.95;;;;;;;;;;10189104;28;20065;-70
2022/10/30 09:25:39;;;;;;;13.00;7.45;;;;;;;;;;10170594;28;20077;-69
2022/10/30 09:30:55;;;;;;;11.82;6.93;;;;;;;;;;10160251;28;20062;-69
2022/10/30 09:35:56;;;;;;;6.70;5.50;;;;;;;;;;10178861;28;20054;-69
2022/10/30 09:41:09;;;;;;;8.95;8.07;;;;;;;;;;10156942;28;20544;-69
2022/10/30 09:46:22;;;;;;;17.05;12.75;;;;;;;;;;10176018;28;20885;-67
2022/10/30 09:51:36;;;;;;;8.15;6.45;;;;;;;;;;10163996;28;20081;-69
2022/10/30 09:56:36;;;;;;;11.63;6.88;;;;;;;;;;10184749;28;20092;-68
2022/10/30 10:01:39;;;;;;;14.05;10.05;;;;;;;;;;10169562;28;20050;-68
2022/10/30 10:06:43;;;;;;;11.20;7.28;;;;;;;;;;10187389;28;20069;-68
2022/10/30 10:12:18;;;;;;;23.08;12.27;;;;;;;;;;10167145;28;20077;-68
2022/10/30 10:17:24;;;;;;;10.25;6.93;;;;;;;;;;10184227;28;20074;-69
2022/10/30 10:22:26;;;;;;;8.23;6.60;;;;;;;;;;10187276;28;20065;-69
2022/10/30 10:27:32;;;;;;;19.17;12.30;;;;;;;;;;10185120;28;20448;-70
2022/10/30 10:32:48;;;;;;;12.02;8.65;;;;;;;;;;10183469;28;20065;-69
2022/10/30 10:37:50;;;;;;;14.02;10.07;;;;;;;;;;10186207;28;20176;-70
2022/10/30 10:42:54;;;;;;;8.32;6.20;;;;;;;;;;10186703;28;20058;-70
2022/10/30 10:48:05;;;;;;;10.90;6.13;;;;;;;;;;10185852;28;20508;-69
2022/10/30 10:53:07;;;;;;;13.32;8.43;;;;;;;;;;10185173;28;20092;-70
2022/10/30 10:58:06;;;;;;;15.45;10.48;;;;;;;;;;10185362;28;20104;-70
2022/10/30 11:03:07;;;;;;;8.45;6.50;;;;;;;;;;10185409;28;20530;-69
2022/10/30 11:08:11;;;;;;;9.02;5.80;;;;;;;;;;10185315;28;20069;-66
2022/10/30 11:13:11;;;;;;;10.00;7.78;;;;;;;;;;10184469;28;20068;-69
2022/10/30 11:18:10;;;;;;;11.60;7.82;;;;;;;;;;10186406;28;20074;-69
2022/10/30 11:23:28;;;;;;;13.20;8.43;;;;;;;;;;10167322;28;20479;-69
2022/10/30 11:28:44;;;;;;;4.65;4.03;;;;;;;;;;10182012;28;20070;-69
2022/10/30 11:33:43;;;;;;;9.20;4.45;;;;;;;;;;10179174;28;20073;-70
2022/10/30 11:38:42;;;;;;;7.55;4.93;;;;;;;;;;10170016;28;20069;-68
2022/10/30 11:43:41;;;;;;;7.57;4.43;;;;;;;;;;10179161;28;20104;-68
2022/10/30 11:48:43;;;;;;;20.02;16.33;;;;;;;;;;10186247;28;20084;-68
2022/10/30 11:53:47;;;;;;;15.68;12.05;;;;;;;;;;10190956;28;20092;-67
2022/10/30 11:58:46;;;;;;;15.13;11.68;;;;;;;;;;10190365;28;20095;-68
2022/10/30 12:03:44;;;;;;;14.93;9.02;;;;;;;;;;10191865;28;21559;-69
2022/10/30 12:08:57;;;;;;;17.20;10.10;;;;;;;;;;10190461;28;20500;-69
2022/10/30 12:13:56;;;;;;;8.43;5.90;;;;;;;;;;10191038;28;20062;-69
2022/10/30 12:18:57;;;;;;;7.00;5.00;;;;;;;;;;10170302;28;20066;-68
2022/10/30 12:24:00;;;;;;;9.13;5.80;;;;;;;;;;10169641;28;20566;-68
2022/10/30 12:28:59;;;;;;;7.70;5.25;;;;;;;;;;10169602;28;20065;-69
2022/10/30 12:34:03;;;;;;;7.63;5.45;;;;;;;;;;10182904;28;20069;-70
2022/10/30 12:39:05;;;;;;;6.10;4.57;;;;;;;;;;10185035;28;20070;-69
2022/10/30 12:44:09;;;;;;;7.55;5.50;;;;;;;;;;10160481;28;20077;-68
2022/10/30 12:49:11;;;;;;;8.00;4.63;;;;;;;;;;10168277;28;20117;-68
2022/10/30 12:54:18;;;;;;;9.85;5.07;;;;;;;;;;10164220;28;20066;-68
2022/10/30 12:59:28;;;;;;;5.90;4.88;;;;;;;;;;10167661;28;20081;-69
2022/10/30 13:04:28;;;;;;;9.85;8.63;;;;;;;;;;10165200;28;20084;-68
2022/10/30 13:09:32;;;;;;;7.25;4.10;;;;;;;;;;10152603;28;20074;-69
2022/10/30 13:14:45;;;;;;;6.60;4.95;;;;;;;;;;10165453;28;20650;-68
2022/10/30 13:20:58;;;;;;;;;;;;;;;;;;;;;
2022/10/30 13:45:32;;;;;;;12.18;7.57;;;;;;;;;;10109696;28;20086;-70
2022/10/30 13:51:05;;;;;;;13.35;7.88;;;;;;;;;;9991473;29;20628;-71
2022/10/30 14:37:45;;;;;;;11.63;5.80;;;;;;;;;;9848029;29;20105;-69
2022/10/30 15:00:35;;;;;;;9.20;6.47;;;;;;;;;;9863647;29;20564;-69
2022/10/30 15:18:47;;;;;;;20.52;10.35;;;;;;;;;;5538135;23;20126;-67
2022/10/30 15:29:16;;;;;;;14.25;7.43;;;;;;;;;;9971532;29;20084;-69
2022/10/30 15:34:21;;;;;;;15.48;8.90;;;;;;;;;;9972862;29;20528;-69
2022/10/30 15:39:19;;;;;;;;;;;;;;;;;;9936046;29;20079;-69
2022/10/30 15:44:21;;;;;;;51.15;32.35;;;;;;;;;;9972916;29;19963;-69
2022/10/30 15:49:25;;;;;;;39.22;32.13;;;;;;;;;;9963545;29;20702;-69
2022/10/30 15:54:27;;;;;;;51.55;38.10;;;;;;;;;;9971469;29;20743;-69
2022/10/30 15:59:28;;;;;;;17.77;10.95;;;;;;;;;;9971241;29;20076;-69
2022/10/30 16:04:27;;;;;;;46.20;26.30;;;;;;;;;;9982983;29;20080;-69
2022/10/30 16:09:28;;;;;;;20.02;11.60;;;;;;;;;;9966370;29;20071;-69
2022/10/30 16:14:29;;;;;;;12.65;7.68;;;;;;;;;;9971666;29;20081;-69
2022/10/30 16:19:31;;;;;;;13.15;7.35;;;;;;;;;;9963489;29;20492;-69
2022/10/30 16:24:30;;;;;;;10.18;6.07;;;;;;;;;;9942937;29;20503;-70
2022/10/30 16:29:35;;;;;;;11.60;7.80;;;;;;;;;;9967603;29;20072;-69
2022/10/30 16:40:00;;;;;;;7.03;5.88;;;;;;;;;;9938546;29;20124;-69
2022/10/30 16:45:27;;;;;;;11.27;6.77;;;;;;;;;;9948190;29;20079;-68
2022/10/30 16:50:43;;;;;;;9.40;5.90;;;;;;;;;;9966286;29;20135;-69
2022/10/30 16:55:42;;;;;;;10.05;5.57;;;;;;;;;;9968466;29;20078;-70
2022/10/30 17:00:48;;;;;;;8.90;4.53;;;;;;;;;;9970017;29;20534;-69
2022/10/30 17:05:56;;;;;;;17.50;5.68;;;;;;;;;;9968818;29;20076;-68
2022/10/30 17:10:57;;;;;;;11.25;5.53;;;;;;;;;;9992353;29;20083;-70
2022/10/30 17:15:56;;;;;;;9.60;4.75;;;;;;;;;;9982377;29;20072;-70
2022/10/30 17:20:59;;;;;;;13.65;6.10;;;;;;;;;;9973642;29;20076;-69
2022/10/30 17:25:57;;;;;;;7.78;4.53;;;;;;;;;;9967574;29;20091;-69
2022/10/30 17:30:56;;;;;;;7.80;5.25;;;;;;;;;;9965763;29;20511;-70
2022/10/30 17:35:55;;;;;;;13.68;6.13;;;;;;;;;;9966002;29;20068;-71
2022/10/30 17:40:53;;;;;;;11.02;6.03;;;;;;;;;;9965728;29;20071;-70
2022/10/30 17:45:52;;;;;;;9.80;5.00;;;;;;;;;;9966757;29;20072;-69
2022/10/30 17:50:52;;;;;;;8.93;6.45;;;;;;;;;;9967169;29;20094;-70
2022/10/30 17:55:53;;;;;;;10.10;5.55;;;;;;;;;;9954728;29;20072;-70
2022/10/30 18:00:54;;;;;;;6.72;4.63;;;;;;;;;;9965376;29;20064;-69
2022/10/30 18:05:54;;;;;;;7.32;4.70;;;;;;;;;;9975589;29;20068;-70
2022/10/30 18:10:52;;;;;;;6.25;4.45;;;;;;;;;;9948267;29;20080;-70
2022/10/30 18:15:53;;;;;;;9.90;4.40;;;;;;;;;;9985766;29;20519;-70
2022/10/30 18:20:52;;;;;;;5.57;4.57;;;;;;;;;;9970687;29;20075;-69
2022/10/30 18:25:54;;;;;;;7.20;4.45;;;;;;;;;;9973637;29;20515;-69
2022/10/30 18:30:56;;;;;;;7.25;4.78;;;;;;;;;;9985754;29;20076;-69
2022/10/30 18:35:57;;;;;;;10.43;5.13;;;;;;;;;;9976008;29;20071;-70
2022/10/30 18:41:10;;;;;;;9.52;5.72;;;;;;;;;;9978077;29;20082;-69
2022/10/30 18:46:12;;;;;;;10.55;4.82;;;;;;;;;;9982898;29;20080;-69
2022/10/30 18:51:18;;;;;;;6.38;5.03;;;;;;;;;;9992991;29;20102;-69
2022/10/30 18:56:20;;;;;;;8.23;5.32;;;;;;;;;;9984754;29;20071;-69
2022/10/30 19:01:20;;;;;;;9.00;5.35;;;;;;;;;;9982177;29;20064;-68
2022/10/30 19:06:20;;;;;;;11.82;5.43;;;;;;;;;;9965284;29;20091;-69
2022/10/30 19:11:20;;;;;;;13.13;6.10;;;;;;;;;;9983697;29;20079;-69
2022/10/30 19:16:24;;;;;;;14.30;5.72;;;;;;;;;;9973888;29;20084;-69
2022/10/30 19:21:24;;;;;;;9.70;5.00;;;;;;;;;;9994481;29;20075;-69
2022/10/30 19:26:24;;;;;;;10.25;5.93;;;;;;;;;;10000632;29;20589;-70
2022/10/30 19:31:22;;;;;;;8.32;5.72;;;;;;;;;;9999769;29;20517;-70
2022/10/30 19:36:28;;;;;;;7.00;5.10;;;;;;;;;;9992645;29;20068;-69
2022/10/30 19:41:30;;;;;;;8.00;5.15;;;;;;;;;;9998229;29;20490;-70
2022/10/30 19:46:32;;;;;;;12.35;5.47;;;;;;;;;;10000672;29;20078;-69
2022/10/30 19:51:33;;;;;;;7.40;5.55;;;;;;;;;;10001702;29;20084;-71
2022/10/30 19:56:35;;;;;;;8.18;4.32;;;;;;;;;;10001451;29;20534;-69
2022/10/30 20:01:34;;;;;;;9.50;4.93;;;;;;;;;;10008318;29;20075;-69
2022/10/30 20:06:37;;;;;;;7.60;5.25;;;;;;;;;;10002086;29;20075;-70
2022/10/30 20:11:39;;;;;;;6.72;5.07;;;;;;;;;;9992322;29;20071;-69
2022/10/30 20:16:38;;;;;;;7.10;5.38;;;;;;;;;;9986171;29;20076;-70
2022/10/30 20:21:37;;;;;;;12.25;5.97;;;;;;;;;;9990546;29;20072;-70
2022/10/30 20:26:37;;;;;;;12.30;5.00;;;;;;;;;;9989571;29;20095;-69
2022/10/30 20:31:36;;;;;;;9.68;6.20;;;;;;;;;;9985793;29;20072;-68
2022/10/30 20:36:35;;;;;;;10.85;6.00;;;;;;;;;;9978591;29;20072;-69
2022/10/30 20:41:33;;;;;;;6.82;5.28;;;;;;;;;;9955120;29;20084;-69
2022/10/30 20:46:31;;;;;;;6.53;5.70;;;;;;;;;;9965322;29;20071;-68
2022/10/30 20:51:31;;;;;;;9.15;5.03;;;;;;;;;;9979240;29;20076;-68
2022/10/30 20:56:29;;;;;;;10.80;6.47;;;;;;;;;;9970984;29;20714;-69
2022/10/30 21:01:27;;;;;;;7.63;5.13;;;;;;;;;;9968597;29;20487;-69
2022/10/30 21:06:26;;;;;;;9.40;5.20;;;;;;;;;;9969580;29;20284;-69
2022/10/30 21:11:25;;;;;;;12.23;5.15;;;;;;;;;;9961085;29;20705;-68
2022/10/30 21:16:24;;;;;;;6.18;4.63;;;;;;;;;;9970724;29;20078;-68
2022/10/30 21:21:22;;;;;;;9.20;4.45;;;;;;;;;;9970237;29;20173;-69
2022/10/30 21:26:23;;;;;;;9.88;5.07;;;;;;;;;;9969985;29;20092;-67
2022/10/30 21:31:23;;;;;;;11.23;5.35;;;;;;;;;;9970000;29;20497;-68
2022/10/30 21:36:21;;;;;;;8.93;5.47;;;;;;;;;;9969942;29;20479;-68
2022/10/30 21:41:20;;;;;;;10.70;5.60;;;;;;;;;;9968763;29;20076;-69
2022/10/30 21:46:18;;;;;;;7.72;5.22;;;;;;;;;;9968818;29;20045;-69
2022/10/30 21:51:19;;;;;;;6.63;4.88;;;;;;;;;;9975337;29;20083;-69
2022/10/30 21:56:18;;;;;;;8.85;5.40;;;;;;;;;;9974976;29;20076;-69
2022/10/30 22:01:18;;;;;;;10.68;5.65;;;;;;;;;;9968546;29;20463;-69
2022/10/30 22:06:18;;;;;;;5.80;4.95;;;;;;;;;;9968026;29;20053;-69
2022/10/30 22:11:16;;;;;;;8.38;5.65;;;;;;;;;;9968540;29;20061;-67
2022/10/30 22:16:15;;;;;;;7.03;5.60;;;;;;;;;;9967639;29;20545;-68
2022/10/30 22:21:13;;;;;;;6.45;5.78;;;;;;;;;;9967551;29;20083;-68
2022/10/30 22:26:14;;;;;;;8.38;5.55;;;;;;;;;;9970882;29;20095;-68
2022/10/30 22:31:13;;;;;;;6.22;5.47;;;;;;;;;;9965027;29;20072;-67
2022/10/30 22:36:13;;;;;;;8.55;4.82;;;;;;;;;;9968301;29;20095;-68
2022/10/30 22:41:14;;;;;;;7.80;5.57;;;;;;;;;;9968103;29;20083;-67
2022/10/30 22:46:12;;;;;;;9.05;7.07;;;;;;;;;;9967516;29;20080;-68
2022/10/30 22:51:12;;;;;;;10.40;7.22;;;;;;;;;;9966540;29;20072;-68
2022/10/30 22:56:16;;;;;;;11.15;7.15;;;;;;;;;;9965432;29;20516;-69
2022/10/30 23:01:15;;;;;;;8.80;6.93;;;;;;;;;;9967245;29;20076;-68
2022/10/30 23:06:13;;;;;;;10.95;6.53;;;;;;;;;;9958974;29;20566;-68
2022/10/30 23:11:11;;;;;;;9.40;6.45;;;;;;;;;;9967142;29;20460;-68
2022/10/30 23:16:13;;;;;;;8.27;6.30;;;;;;;;;;9967883;29;20084;-67
2022/10/30 23:21:12;;;;;;;10.35;5.13;;;;;;;;;;9966620;29;20098;-70
2022/10/30 23:26:12;;;;;;;7.30;5.80;;;;;;;;;;9966260;29;20056;-70
2022/10/30 23:31:10;;;;;;;7.15;5.70;;;;;;;;;;9967082;29;20526;-68
2022/10/30 23:36:10;;;;;;;8.68;5.70;;;;;;;;;;9965441;29;20076;-68
2022/10/30 23:41:08;;;;;;;7.30;6.35;;;;;;;;;;9966900;29;20087;-67
2022/10/30 23:46:06;;;;;;;11.18;5.85;;;;;;;;;;9972902;29;20080;-68
2022/10/30 23:51:07;;;;;;;9.43;6.05;;;;;;;;;;9974232;29;20076;-68
2022/10/30 23:56:08;;;;;;;7.47;5.93;;;;;;;;;;9972911;29;20132;-68
